Time;durP1;ratioP1;P1;durP2;ratioP2;P2;SDS_P1;SDS_P2;PMS_P1;PMS_P2;Temp;Humidity;BMP_temperature;BMP_pressure;BME280_temperature;BME280_humidity;BME280_pressure;Samples;Min_cycle;Max_cycle;Signal;HPM_P1;HPM_P2
2021/09/12 00:01:35;;;;;;;17.67;16.55;;;;;;;16.00;100.00;100179.53;10380811;28;20046;-72
2021/09/12 00:06:37;;;;;;;20.25;18.42;;;;;;;16.24;100.00;100183.53;10434592;22;20084;-74
2021/09/12 00:11:38;;;;;;;19.25;17.92;;;;;;;16.15;99.51;100182.22;10425797;28;20041;-74
2021/09/12 00:16:40;;;;;;;19.75;18.45;;;;;;;15.94;100.00;100188.66;10423594;28;20141;-75
2021/09/12 00:21:41;;;;;;;21.92;20.30;;;;;;;15.76;100.00;100186.91;10423259;28;20107;-74
2021/09/12 00:26:43;;;;;;;23.13;21.33;;;;;;;15.89;100.00;100188.00;10421180;28;20048;-75
2021/09/12 00:31:45;;;;;;;23.00;21.30;;;;;;;16.20;98.41;100184.63;10425427;28;20041;-74
2021/09/12 00:36:46;;;;;;;25.65;23.70;;;;;;;15.81;100.00;100188.44;10421650;28;20057;-74
2021/09/12 00:41:48;;;;;;;22.55;20.98;;;;;;;15.56;100.00;100180.81;10422911;28;20048;-73
2021/09/12 00:46:52;;;;;;;25.70;23.55;;;;;;;15.61;100.00;100183.22;10422182;28;20457;-74
2021/09/12 00:51:54;;;;;;;25.27;23.25;;;;;;;15.63;100.00;100190.19;10425538;28;20101;-74
2021/09/12 00:56:56;;;;;;;23.73;22.13;;;;;;;15.46;100.00;100197.25;10422590;28;20052;-73
2021/09/12 01:01:58;;;;;;;23.23;20.92;;;;;;;15.88;98.92;100186.31;10421886;28;20064;-74
2021/09/12 01:07:01;;;;;;;21.77;20.00;;;;;;;15.90;98.86;100179.16;10421201;28;20415;-74
2021/09/12 01:12:03;;;;;;;20.33;18.67;;;;;;;15.69;99.90;100182.88;10421844;28;20037;-74
2021/09/12 01:17:06;;;;;;;22.08;20.33;;;;;;;15.45;100.00;100190.22;10423550;28;20107;-74
2021/09/12 01:22:07;;;;;;;20.45;19.15;;;;;;;15.26;100.00;100180.53;10419068;28;20057;-74
2021/09/12 01:27:09;;;;;;;23.42;21.33;;;;;;;15.27;100.00;100186.69;10421193;28;20107;-74
2021/09/12 01:32:11;;;;;;;22.20;20.50;;;;;;;15.30;100.00;100178.59;10423872;28;20051;-75
2021/09/12 01:37:12;;;;;;;21.85;20.05;;;;;;;15.64;100.00;100176.03;10418826;28;20050;-74
2021/09/12 01:42:14;;;;;;;19.58;18.13;;;;;;;15.67;99.39;100166.19;10419339;28;20044;-73
2021/09/12 01:47:16;;;;;;;23.65;18.30;;;;;;;15.38;99.73;100166.69;10421140;28;20446;-74
2021/09/12 01:52:18;;;;;;;20.65;19.10;;;;;;;15.51;100.00;100169.59;10422381;28;20103;-74
2021/09/12 01:57:19;;;;;;;19.30;17.90;;;;;;;15.34;100.00;100159.81;10418242;28;20041;-74
2021/09/12 02:02:21;;;;;;;18.70;17.38;;;;;;;15.45;100.00;100161.97;10418210;28;20060;-73
2021/09/12 02:07:23;;;;;;;18.88;17.60;;;;;;;15.57;100.00;100163.97;10417930;28;20053;-74
2021/09/12 02:12:24;;;;;;;17.05;15.85;;;;;;;15.38;100.00;100156.09;10418668;28;20045;-74
2021/09/12 02:17:26;;;;;;;17.92;16.63;;;;;;;15.41;100.00;100155.09;10422523;28;20049;-74
2021/09/12 02:22:27;;;;;;;16.60;15.40;;;;;;;15.59;100.00;100158.63;10416974;28;20528;-74
2021/09/12 02:27:29;;;;;;;16.88;15.57;;;;;;;15.51;100.00;100164.28;10419218;28;20053;-74
2021/09/12 02:32:31;;;;;;;16.27;15.27;;;;;;;15.48;100.00;100159.13;10417042;28;20045;-73
2021/09/12 02:37:32;;;;;;;15.32;14.27;;;;;;;15.37;100.00;100158.84;10420017;28;20103;-74
2021/09/12 02:42:34;;;;;;;16.10;14.93;;;;;;;15.52;100.00;100162.50;10416850;28;20037;-74
2021/09/12 02:47:36;;;;;;;17.48;16.25;;;;;;;15.47;100.00;100162.72;10417654;28;20069;-73
2021/09/12 02:52:38;;;;;;;17.73;16.35;;;;;;;15.42;100.00;100167.41;10416488;28;20465;-74
2021/09/12 02:57:39;;;;;;;16.80;15.70;;;;;;;15.58;100.00;100165.72;10417016;28;20341;-74
2021/09/12 03:02:41;;;;;;;16.05;14.95;;;;;;;15.76;100.00;100177.22;10400606;28;20053;-74
2021/09/12 03:07:43;;;;;;;15.05;14.13;;;;;;;15.93;100.00;100168.38;10418375;28;20376;-73
2021/09/12 03:12:44;;;;;;;14.90;13.85;;;;;;;15.75;100.00;100159.56;10417393;28;20044;-74
2021/09/12 03:17:46;;;;;;;14.60;13.70;;;;;;;15.71;100.00;100160.66;10415870;28;20045;-73
2021/09/12 03:22:47;;;;;;;13.73;12.80;;;;;;;15.53;100.00;100153.59;10418904;28;20103;-74
2021/09/12 03:27:52;;;;;;;15.40;14.13;;;;;;;15.66;100.00;100154.72;10415284;28;20046;-74
2021/09/12 03:32:53;;;;;;;15.20;14.13;;;;;;;15.88;100.00;100149.19;10416233;28;20061;-74
2021/09/12 03:37:55;;;;;;;13.45;12.55;;;;;;;15.75;100.00;100150.75;10416790;28;20080;-74
2021/09/12 03:42:57;;;;;;;14.93;13.52;;;;;;;15.70;100.00;100150.13;10417943;28;20049;-74
2021/09/12 03:47:59;;;;;;;16.27;14.88;;;;;;;15.61;100.00;100154.09;10416744;28;20041;-73
2021/09/12 03:53:01;;;;;;;14.77;13.88;;;;;;;15.47;100.00;100151.28;10415826;28;20075;-74
2021/09/12 03:58:02;;;;;;;15.35;14.35;;;;;;;15.35;100.00;100144.78;10416275;28;20108;-74
2021/09/12 04:03:04;;;;;;;15.50;14.15;;;;;;;15.40;100.00;100153.34;10416707;28;20056;-74
2021/09/12 04:08:06;;;;;;;14.43;13.27;;;;;;;15.34;100.00;100157.19;10418316;28;20041;-74
2021/09/12 04:13:08;;;;;;;13.80;12.68;;;;;;;15.35;100.00;100163.31;10418923;28;20053;-74
2021/09/12 04:18:09;;;;;;;12.77;11.98;;;;;;;15.36;100.00;100154.44;10422598;28;20044;-74
2021/09/12 04:23:11;;;;;;;13.73;12.73;;;;;;;15.67;100.00;100156.47;10422945;28;20072;-74
2021/09/12 04:28:12;;;;;;;13.10;12.25;;;;;;;15.48;100.00;100151.19;10423197;28;20037;-74
2021/09/12 04:33:14;;;;;;;15.20;14.15;;;;;;;15.92;99.70;100147.25;10423350;28;20045;-74
2021/09/12 04:38:15;;;;;;;14.20;13.25;;;;;;;15.77;100.00;100156.84;10422351;28;20045;-74
2021/09/12 04:43:17;;;;;;;16.17;14.88;;;;;;;15.62;100.00;100158.44;10422185;28;20118;-74
2021/09/12 04:48:19;;;;;;;17.02;15.65;;;;;;;15.40;100.00;100161.31;10423536;28;20041;-74
2021/09/12 04:53:20;;;;;;;15.00;14.00;;;;;;;15.38;100.00;100169.34;10421731;28;20190;-74
2021/09/12 04:58:22;;;;;;;16.10;14.68;;;;;;;15.40;100.00;100166.59;10422015;28;20041;-74
2021/09/12 05:03:23;;;;;;;16.38;15.35;;;;;;;15.44;100.00;100162.00;10421569;28;20091;-74
2021/09/12 05:08:25;;;;;;;15.55;14.52;;;;;;;15.53;100.00;100167.72;10419538;28;20052;-74
2021/09/12 05:13:27;;;;;;;17.77;16.42;;;;;;;15.51;100.00;100172.25;10424266;28;20238;-74
2021/09/12 05:18:29;;;;;;;14.40;13.48;;;;;;;15.59;100.00;100170.06;10420629;28;20491;-74
2021/09/12 05:23:30;;;;;;;15.25;14.15;;;;;;;15.66;100.00;100177.72;10420890;28;20053;-74
2021/09/12 05:28:34;;;;;;;19.95;18.45;;;;;;;15.64;100.00;100183.97;10419620;28;20068;-74
2021/09/12 05:33:35;;;;;;;18.63;17.02;;;;;;;15.84;100.00;100184.75;10421519;28;20059;-74
2021/09/12 05:38:37;;;;;;;18.35;17.10;;;;;;;15.97;100.00;100193.78;10419669;28;20041;-74
2021/09/12 05:43:38;;;;;;;16.42;15.43;;;;;;;16.15;100.00;100176.91;10420318;28;20465;-74
2021/09/12 05:48:40;;;;;;;14.90;13.90;;;;;;;16.39;100.00;100179.22;10419275;28;20049;-74
2021/09/12 05:53:42;;;;;;;17.13;15.77;;;;;;;16.15;100.00;100184.88;10421054;28;20057;-74
2021/09/12 05:58:43;;;;;;;18.05;16.65;;;;;;;16.01;100.00;100186.53;10419210;28;20084;-74
2021/09/12 06:03:46;;;;;;;16.33;15.18;;;;;;;16.11;100.00;100188.66;10433823;22;20076;-75
2021/09/12 06:08:48;;;;;;;17.85;16.75;;;;;;;16.15;100.00;100189.31;10422100;28;20420;-75
2021/09/12 06:13:50;;;;;;;18.60;17.50;;;;;;;16.17;100.00;100191.91;10423185;28;20120;-75
2021/09/12 06:18:52;;;;;;;16.90;15.00;;;;;;;16.33;100.00;100183.03;10426550;28;20101;-74
2021/09/12 06:23:55;;;;;;;14.73;13.52;;;;;;;16.72;100.00;100188.94;10419598;28;20129;-76
2021/09/12 06:28:57;;;;;;;12.38;11.57;;;;;;;17.18;99.26;100189.94;10418693;28;20037;-75
2021/09/12 06:33:58;;;;;;;12.63;11.63;;;;;;;17.17;99.65;100182.91;10401851;28;20049;-74
2021/09/12 06:39:00;;;;;;;11.77;10.88;;;;;;;17.39;97.18;100188.69;10418171;28;20072;-75
2021/09/12 06:44:03;;;;;;;11.77;10.80;;;;;;;17.23;98.21;100184.38;10418471;28;20049;-76
2021/09/12 06:49:04;;;;;;;12.63;11.63;;;;;;;17.10;100.00;100194.84;10419516;28;20041;-75
2021/09/12 06:54:06;;;;;;;12.90;12.07;;;;;;;17.17;99.72;100187.34;10419828;28;20473;-74
2021/09/12 06:59:08;;;;;;;12.10;11.20;;;;;;;17.08;100.00;100180.75;10418925;28;20037;-75
2021/09/12 07:04:10;;;;;;;12.82;12.05;;;;;;;17.09;100.00;100178.03;10419814;28;20045;-76
2021/09/12 07:09:11;;;;;;;12.70;11.85;;;;;;;17.39;100.00;100191.34;10419360;28;20042;-77
2021/09/12 07:14:13;;;;;;;11.55;10.73;;;;;;;17.58;99.82;100182.34;10419785;28;20443;-75
2021/09/12 07:19:15;;;;;;;11.05;10.10;;;;;;;17.79;96.92;100196.19;10415410;28;20458;-76
2021/09/12 07:24:17;;;;;;;11.23;10.43;;;;;;;17.76;97.20;100196.38;10416039;28;20033;-74
2021/09/12 07:29:20;;;;;;;10.35;9.52;;;;;;;17.86;97.20;100200.22;10415557;28;20049;-76
2021/09/12 07:34:21;;;;;;;9.80;9.18;;;;;;;18.11;94.87;100202.28;10414936;28;20056;-75
2021/09/12 07:39:23;;;;;;;14.10;10.45;;;;;;;18.27;92.34;100196.84;10417140;28;20045;-74
2021/09/12 07:44:25;;;;;;;9.50;8.80;;;;;;;18.12;94.91;100206.63;10415209;28;20392;-74
2021/09/12 07:49:27;;;;;;;9.05;8.40;;;;;;;18.02;95.24;100216.13;10421824;28;20037;-75
2021/09/12 07:54:29;;;;;;;11.93;10.80;;;;;;;18.05;95.35;100211.44;10424992;28;20051;-75
2021/09/12 07:59:30;;;;;;;11.10;10.13;;;;;;;18.32;92.21;100218.72;10424337;28;20111;-75
2021/09/12 08:04:32;;;;;;;9.57;8.93;;;;;;;18.18;92.61;100216.03;10423096;28;20076;-76
2021/09/12 08:09:34;;;;;;;9.80;9.30;;;;;;;18.33;93.96;100221.31;10424516;28;20483;-75
2021/09/12 08:14:37;;;;;;;9.73;8.82;;;;;;;18.49;92.79;100220.34;10422796;28;20045;-74
2021/09/12 08:19:39;;;;;;;11.35;10.52;;;;;;;18.57;91.05;100223.41;10421980;28;20053;-75
2021/09/12 08:24:41;;;;;;;11.15;10.45;;;;;;;18.73;91.94;100221.53;10421653;28;20057;-74
2021/09/12 08:29:42;;;;;;;11.20;10.50;;;;;;;18.95;91.02;100234.38;10422145;28;20046;-75
2021/09/12 08:34:45;;;;;;;9.65;9.15;;;;;;;19.29;87.43;100226.84;10420960;28;20046;-75
2021/09/12 08:39:46;;;;;;;10.70;10.00;;;;;;;19.38;86.77;100223.59;10422811;28;20142;-75
2021/09/12 08:44:50;;;;;;;11.10;10.20;;;;;;;19.44;86.80;100228.53;10420896;28;20045;-76
2021/09/12 08:49:52;;;;;;;11.32;10.18;;;;;;;19.47;86.01;100222.13;10421699;28;20037;-75
2021/09/12 08:54:54;;;;;;;10.10;9.48;;;;;;;19.90;83.38;100217.50;10420535;28;20106;-76
2021/09/12 08:59:55;;;;;;;10.55;9.82;;;;;;;19.90;83.10;100222.84;10420844;28;20049;-75
2021/09/12 09:05:02;;;;;;;9.73;9.15;;;;;;;20.41;80.42;100220.25;10420806;28;20541;-74
2021/09/12 09:10:19;;;;;;;10.38;9.80;;;;;;;20.19;82.07;100226.22;10420526;28;20056;-75
2021/09/12 09:15:23;;;;;;;10.02;9.38;;;;;;;20.43;80.21;100220.97;10421141;28;20054;-76
2021/09/12 09:20:32;;;;;;;10.13;9.23;;;;;;;20.04;82.69;100220.09;10421106;28;20041;-76
2021/09/12 09:25:34;;;;;;;12.32;11.57;;;;;;;19.77;83.64;100216.63;10419649;28;20056;-75
2021/09/12 09:30:51;;;;;;;14.13;13.13;;;;;;;19.63;83.95;100218.38;10454206;28;20049;-75
2021/09/12 09:35:55;;;;;;;16.92;15.75;;;;;;;19.85;83.00;100216.97;10424054;28;20495;-75
2021/09/12 09:41:18;;;;;;;13.43;12.52;;;;;;;20.31;79.90;100212.00;10422157;28;20052;-75
2021/09/12 09:46:35;;;;;;;12.93;12.05;;;;;;;21.06;76.27;100211.19;10448166;28;20045;-75
2021/09/12 09:51:37;;;;;;;10.73;10.13;;;;;;;21.42;71.43;100202.31;10433378;28;20399;-74
2021/09/12 09:56:45;;;;;;;9.25;8.70;;;;;;;21.49;72.68;100200.06;10421671;28;20487;-76
2021/09/12 10:01:52;;;;;;;10.65;9.95;;;;;;;21.62;71.67;100195.50;10434025;28;20406;-75
2021/09/12 10:06:56;;;;;;;11.63;10.93;;;;;;;21.51;72.23;100192.75;10442905;28;20049;-75
2021/09/12 10:12:02;;;;;;;11.50;10.70;;;;;;;21.34;74.92;100192.19;10418813;28;20088;-75
2021/09/12 10:17:05;;;;;;;10.77;10.07;;;;;;;22.26;69.71;100187.03;10417686;28;20457;-74
2021/09/12 10:22:10;;;;;;;8.52;7.93;;;;;;;22.94;68.54;100175.41;10419076;28;20045;-75
2021/09/12 10:27:38;;;;;;;9.60;8.70;;;;;;;22.87;66.63;100168.78;10418671;28;20077;-75
2021/09/12 10:32:40;;;;;;;9.50;8.85;;;;;;;23.04;65.19;100160.25;10417768;28;20075;-76
2021/09/12 10:37:57;;;;;;;9.43;8.73;;;;;;;22.68;65.38;100161.38;10417719;28;20135;-76
2021/09/12 10:42:59;;;;;;;8.10;7.60;;;;;;;22.34;67.31;100165.88;10416920;28;20039;-74
2021/09/12 10:48:20;;;;;;;8.23;7.72;;;;;;;22.49;66.49;100161.13;10417972;28;20049;-74
2021/09/12 10:54:01;;;;;;;5.53;5.03;;;;;;;22.31;67.58;100155.41;10399008;28;20128;-76
2021/09/12 10:59:10;;;;;;;3.55;3.35;;;;;;;22.52;62.66;100145.66;10417894;28;20120;-74
2021/09/12 11:04:16;;;;;;;3.50;3.20;;;;;;;22.84;58.21;100143.09;10417695;28;20050;-75
2021/09/12 11:09:19;;;;;;;2.85;2.65;;;;;;;23.13;56.43;100139.88;10417634;28;20049;-74
2021/09/12 11:14:21;;;;;;;2.80;2.33;;;;;;;23.70;57.50;100129.81;10417558;28;20068;-74
2021/09/12 11:19:23;;;;;;;2.70;2.50;;;;;;;24.08;55.59;100132.75;10416305;28;20038;-74
2021/09/12 11:24:27;;;;;;;2.70;2.50;;;;;;;24.26;56.53;100129.41;10421549;28;20487;-73
2021/09/12 11:29:37;;;;;;;4.47;3.33;;;;;;;23.97;55.38;100121.22;10424429;28;20079;-73
2021/09/12 11:34:41;;;;;;;2.88;2.58;;;;;;;24.06;56.91;100126.63;10425018;28;20072;-73
2021/09/12 11:39:45;;;;;;;3.30;2.38;;;;;;;24.46;51.11;100115.13;10424504;28;20091;-73
2021/09/12 11:44:51;;;;;;;2.63;2.42;;;;;;;24.81;50.70;100116.50;10422603;28;20045;-74
2021/09/12 11:49:57;;;;;;;2.95;2.20;;;;;;;25.05;52.77;100108.88;10460924;28;20047;-74
2021/09/12 11:54:59;;;;;;;2.38;2.17;;;;;;;24.43;54.97;100104.63;10463222;28;20041;-74
2021/09/12 12:00:01;;;;;;;3.25;3.05;;;;;;;23.67;55.45;100099.56;10463758;28;20056;-73
2021/09/12 12:05:06;;;;;;;3.88;2.47;;;;;;;23.63;55.58;100099.91;10464099;28;20041;-74
2021/09/12 12:10:08;;;;;;;2.35;2.25;;;;;;;23.35;57.13;100104.09;10466665;28;20067;-74
2021/09/12 12:15:10;;;;;;;2.28;2.03;;;;;;;22.94;57.63;100105.69;10468592;28;20056;-74
2021/09/12 12:20:15;;;;;;;2.50;2.08;;;;;;;23.30;56.35;100092.91;10465803;28;20525;-75
2021/09/12 12:25:27;;;;;;;2.23;1.97;;;;;;;23.02;55.61;100097.00;10466125;28;20091;-75
2021/09/12 12:30:29;;;;;;;2.25;2.15;;;;;;;23.49;53.77;100090.34;10467508;28;20299;-75
2021/09/12 12:35:30;;;;;;;1.83;1.73;;;;;;;23.74;53.17;100081.09;10464627;28;20057;-75
2021/09/12 12:40:32;;;;;;;3.10;2.05;;;;;;;23.25;54.45;100076.34;10463827;28;20051;-75
2021/09/12 12:45:35;;;;;;;1.88;1.77;;;;;;;23.11;55.00;100085.56;10463328;28;20111;-75
2021/09/12 12:50:44;;;;;;;2.33;2.13;;;;;;;22.86;57.44;100087.53;10463635;28;20048;-75
2021/09/12 12:55:49;;;;;;;3.15;2.05;;;;;;;22.58;57.68;100077.38;10464150;28;20048;-75
2021/09/12 13:00:53;;;;;;;2.45;2.25;;;;;;;22.99;56.93;100068.63;10463355;28;20516;-75
2021/09/12 13:05:56;;;;;;;3.05;2.20;;;;;;;23.14;59.19;100070.03;10461562;28;20132;-76
2021/09/12 13:10:58;;;;;;;2.60;2.40;;;;;;;23.33;56.46;100069.34;10461958;28;20044;-75
2021/09/12 13:16:02;;;;;;;2.03;1.83;;;;;;;23.07;56.26;100074.22;10464203;28;20053;-75
2021/09/12 13:21:04;;;;;;;1.90;1.80;;;;;;;23.03;57.52;100067.41;10462315;28;20434;-75
2021/09/12 13:26:06;;;;;;;3.15;2.25;;;;;;;23.12;57.19;100071.16;10461785;28;20115;-75
2021/09/12 13:31:07;;;;;;;1.70;1.60;;;;;;;23.05;56.33;100073.47;10461381;28;20045;-76
2021/09/12 13:36:09;;;;;;;2.47;1.63;;;;;;;23.04;54.95;100066.41;10461771;28;20045;-75
2021/09/12 13:41:15;;;;;;;2.42;1.52;;;;;;;23.16;52.23;100065.41;10460396;28;20045;-75
2021/09/12 13:46:17;;;;;;;;;;;;;;;22.97;53.97;100064.38;10462267;28;20044;-74
2021/09/12 13:51:18;;;;;;;1.70;1.60;;;;;;;23.28;54.44;100058.13;10461693;28;19927;-75
2021/09/12 13:56:20;;;;;;;2.88;2.38;;;;;;;22.67;56.35;100058.72;10461729;28;20041;-75
2021/09/12 14:01:21;;;;;;;3.58;1.75;;;;;;;22.46;56.58;100055.09;10460632;28;20414;-75
2021/09/12 14:06:23;;;;;;;3.47;1.73;;;;;;;22.63;57.67;100054.59;10460808;28;20076;-77
2021/09/12 14:11:25;;;;;;;1.95;1.85;;;;;;;22.57;57.39;100056.91;10464013;28;20098;-76
2021/09/12 14:16:26;;;;;;;2.03;1.70;;;;;;;22.76;58.20;100045.53;10458966;28;20517;-74
2021/09/12 14:21:28;;;;;;;1.75;1.65;;;;;;;22.76;57.61;100037.50;10460539;28;20103;-76
2021/09/12 14:26:29;;;;;;;2.00;1.80;;;;;;;22.56;56.49;100050.69;10460212;28;20099;-75
2021/09/12 14:31:32;;;;;;;1.85;1.73;;;;;;;22.63;55.51;100043.03;10460986;28;20045;-75
2021/09/12 14:36:38;;;;;;;2.28;1.50;;;;;;;22.83;53.26;100030.66;10460669;28;20061;-75
2021/09/12 14:41:40;;;;;;;1.80;1.70;;;;;;;22.74;56.55;100034.09;10460367;28;20099;-75
2021/09/12 14:46:41;;;;;;;2.85;1.20;;;;;;;22.87;55.51;100027.56;10460021;28;20057;-76
2021/09/12 14:51:43;;;;;;;3.60;1.42;;;;;;;22.72;55.43;100030.69;10460458;28;20449;-75
2021/09/12 14:56:45;;;;;;;1.27;1.20;;;;;;;22.62;55.71;100022.53;10458269;28;20466;-76
2021/09/12 15:01:46;;;;;;;2.40;1.33;;;;;;;22.15;55.94;100025.44;10459311;28;20090;-75
2021/09/12 15:06:48;;;;;;;2.38;1.70;;;;;;;22.19;56.28;100015.34;10458321;28;20410;-76
2021/09/12 15:11:50;;;;;;;1.77;1.67;;;;;;;22.25;57.38;100022.00;10458950;28;20064;-76
2021/09/12 15:16:52;;;;;;;2.65;1.65;;;;;;;22.56;54.19;100021.22;10458700;28;20102;-75
2021/09/12 15:21:53;;;;;;;2.00;1.77;;;;;;;22.44;55.99;100013.34;10458732;28;20122;-75
2021/09/12 15:26:55;;;;;;;2.40;1.73;;;;;;;22.10;56.13;100013.38;10457663;28;20045;-76
2021/09/12 15:31:56;;;;;;;5.38;1.90;;;;;;;22.04;57.27;100014.69;10458252;28;20045;-74
2021/09/12 15:36:58;;;;;;;2.55;1.80;;;;;;;22.20;56.03;100017.03;10459722;28;20041;-76
2021/09/12 15:42:00;;;;;;;1.83;1.73;;;;;;;21.95;56.87;100009.22;10458446;28;20128;-76
2021/09/12 15:47:03;;;;;;;1.80;1.70;;;;;;;22.01;56.30;100012.28;10460162;28;20053;-75
2021/09/12 15:52:04;;;;;;;1.83;1.67;;;;;;;21.99;57.07;100018.72;10458602;28;20041;-74
2021/09/12 15:57:06;;;;;;;2.70;2.22;;;;;;;21.67;57.93;100014.94;10458826;28;20147;-76
2021/09/12 16:02:07;;;;;;;2.35;1.92;;;;;;;21.82;58.63;100006.66;10459227;28;20037;-77
2021/09/12 16:07:09;;;;;;;2.05;1.85;;;;;;;21.59;57.83;100009.31;10457709;28;20053;-74
2021/09/12 16:12:11;;;;;;;2.10;2.00;;;;;;;21.31;58.73;100005.25;10465286;28;20045;-75
2021/09/12 16:17:13;;;;;;;2.25;1.90;;;;;;;21.19;59.75;100003.50;10468110;28;20044;-75
2021/09/12 16:22:14;;;;;;;2.00;1.90;;;;;;;21.22;58.85;100000.59;10465213;28;20411;-76
2021/09/12 16:27:16;;;;;;;2.20;2.00;;;;;;;21.00;60.06;100006.72;10466935;28;20053;-74
2021/09/12 16:32:18;;;;;;;5.40;3.60;;;;;;;21.12;59.87;100004.94;10467132;28;20037;-76
2021/09/12 16:37:22;;;;;;;3.30;3.05;;;;;;;20.94;61.48;100008.97;10465440;28;20464;-75
2021/09/12 16:42:25;;;;;;;4.25;3.95;;;;;;;20.83;61.77;100005.31;10465158;28;20137;-75
2021/09/12 16:47:27;;;;;;;3.75;3.47;;;;;;;20.65;61.98;100009.34;10469389;28;20065;-74
2021/09/12 16:52:28;;;;;;;2.80;2.60;;;;;;;20.73;61.69;100009.63;10471821;28;20168;-75
2021/09/12 16:57:34;;;;;;;3.53;3.25;;;;;;;20.46;63.25;100015.16;10467631;28;20040;-74
2021/09/12 17:02:36;;;;;;;3.85;3.45;;;;;;;20.47;63.82;100021.34;10467261;28;20048;-75
2021/09/12 17:07:39;;;;;;;2.80;2.58;;;;;;;20.19;64.30;100017.16;10467984;28;20044;-75
2021/09/12 17:12:41;;;;;;;3.28;3.00;;;;;;;20.17;64.96;100015.44;10464754;28;20051;-76
2021/09/12 17:17:47;;;;;;;2.60;2.17;;;;;;;20.18;64.53;100016.28;10468530;28;20049;-76
2021/09/12 17:22:51;;;;;;;2.60;2.42;;;;;;;20.20;64.51;100018.88;10469159;28;20120;-75
2021/09/12 17:27:57;;;;;;;3.00;2.80;;;;;;;20.05;65.42;100012.81;10467095;28;20414;-75
2021/09/12 17:32:59;;;;;;;3.25;3.05;;;;;;;19.72;67.21;100010.72;10464214;28;20099;-76
2021/09/12 17:38:01;;;;;;;3.58;3.33;;;;;;;19.66;68.24;100014.69;10466304;28;20045;-76
2021/09/12 17:43:03;;;;;;;4.38;4.07;;;;;;;19.65;69.64;100023.63;10463268;28;20041;-74
2021/09/12 17:48:08;;;;;;;4.65;4.25;;;;;;;19.49;70.07;100028.28;10462740;28;20045;-74
2021/09/12 17:53:10;;;;;;;4.57;4.18;;;;;;;19.16;71.96;100032.28;10461166;28;20410;-74
2021/09/12 17:58:12;;;;;;;4.07;3.78;;;;;;;18.97;72.96;100037.13;10461760;28;20049;-75
2021/09/12 18:03:33;;;;;;;3.80;3.60;;;;;;;18.83;73.72;100044.22;10459394;28;20502;-72
2021/09/12 18:08:35;;;;;;;8.52;4.25;;;;;;;18.72;74.42;100046.72;10460139;28;20132;-73
2021/09/12 18:13:37;;;;;;;4.18;3.83;;;;;;;18.63;74.58;100050.81;10460669;28;20124;-72
2021/09/12 18:18:39;;;;;;;3.60;3.40;;;;;;;18.69;73.32;100043.41;10460666;28;20051;-72
2021/09/12 18:23:40;;;;;;;3.25;3.05;;;;;;;18.78;72.82;100050.81;10459430;28;20037;-74
2021/09/12 18:28:43;;;;;;;6.22;4.82;;;;;;;19.03;72.12;100058.88;10462306;28;20053;-73
2021/09/12 18:33:45;;;;;;;6.45;5.85;;;;;;;18.87;72.46;100059.06;10459955;28;20051;-73
2021/09/12 18:38:46;;;;;;;4.93;4.53;;;;;;;18.65;73.79;100074.69;10463302;28;20398;-73
2021/09/12 18:43:49;;;;;;;3.72;3.35;;;;;;;18.57;73.84;100074.31;10458913;28;20407;-73
2021/09/12 18:48:50;;;;;;;2.85;2.50;;;;;;;18.61;73.38;100084.69;10459283;28;20052;-72
2021/09/12 18:53:53;;;;;;;2.30;2.10;;;;;;;18.73;73.15;100085.75;10457711;28;20053;-74
2021/09/12 18:58:54;;;;;;;2.60;2.40;;;;;;;19.07;71.43;100094.16;10459120;28;20083;-74
2021/09/12 19:03:56;;;;;;;2.80;2.60;;;;;;;18.71;72.94;100102.75;10458775;28;20044;-74
2021/09/12 19:08:59;;;;;;;2.28;2.17;;;;;;;18.70;73.27;100109.03;10458257;28;20072;-73
2021/09/12 19:14:01;;;;;;;2.47;2.28;;;;;;;18.82;72.64;100108.25;10457354;28;20056;-73
2021/09/12 19:19:04;;;;;;;3.08;2.88;;;;;;;18.40;74.62;100116.16;10457674;28;20570;-72
2021/09/12 19:24:09;;;;;;;3.10;2.90;;;;;;;18.29;74.93;100113.34;10455893;28;20045;-73
2021/09/12 19:29:11;;;;;;;3.25;3.00;;;;;;;18.55;74.08;100126.78;10456871;28;20041;-73
2021/09/12 19:34:16;;;;;;;3.60;3.35;;;;;;;18.70;73.36;100125.00;10457231;28;20087;-73
2021/09/12 19:39:18;;;;;;;3.42;3.13;;;;;;;18.62;73.35;100125.47;10455300;28;20041;-73
2021/09/12 19:44:20;;;;;;;2.90;2.70;;;;;;;18.39;74.93;100132.25;10460227;28;20453;-73
2021/09/12 19:49:21;;;;;;;2.78;2.58;;;;;;;18.18;75.33;100122.94;10465697;28;20045;-74
2021/09/12 19:54:23;;;;;;;3.90;3.65;;;;;;;18.32;75.50;100129.09;10464681;28;20049;-72
2021/09/12 19:59:24;;;;;;;3.88;3.55;;;;;;;18.17;75.69;100131.88;10462621;28;20056;-74
2021/09/12 20:04:26;;;;;;;3.03;2.83;;;;;;;18.25;75.92;100133.09;10463563;28;20033;-73
2021/09/12 20:09:27;;;;;;;4.00;3.58;;;;;;;18.10;76.61;100132.22;10464738;28;20049;-73
2021/09/12 20:14:29;;;;;;;4.03;3.70;;;;;;;18.20;76.34;100137.84;10462380;28;20045;-73
2021/09/12 20:19:32;;;;;;;3.38;3.17;;;;;;;18.11;76.81;100139.28;10463328;28;20052;-73
2021/09/12 20:24:34;;;;;;;3.83;3.53;;;;;;;17.94;77.71;100152.75;10463332;28;20103;-72
2021/09/12 20:29:36;;;;;;;4.45;4.05;;;;;;;18.03;77.32;100146.00;10464197;28;20045;-74
2021/09/12 20:34:37;;;;;;;4.43;4.10;;;;;;;17.84;78.16;100148.91;10463213;28;20041;-73
2021/09/12 20:39:39;;;;;;;5.15;4.65;;;;;;;17.62;79.52;100157.28;10463958;28;20045;-72
2021/09/12 20:44:41;;;;;;;4.30;4.07;;;;;;;17.49;80.62;100157.16;10462795;28;20049;-73
2021/09/12 20:49:42;;;;;;;4.70;4.40;;;;;;;17.49;81.02;100162.47;10462458;28;20059;-72
2021/09/12 20:54:44;;;;;;;9.43;5.18;;;;;;;17.43;81.28;100164.63;10462552;28;20041;-72
2021/09/12 20:59:46;;;;;;;4.85;4.45;;;;;;;17.17;82.66;100161.66;10461655;28;20045;-72
2021/09/12 21:04:47;;;;;;;6.80;5.90;;;;;;;16.85;84.66;100159.00;10461882;28;20494;-73
2021/09/12 21:09:49;;;;;;;6.10;5.63;;;;;;;16.80;85.26;100166.38;10461524;28;20044;-73
2021/09/12 21:14:50;;;;;;;6.55;6.05;;;;;;;16.88;85.00;100172.13;10461799;28;20037;-72
2021/09/12 21:19:52;;;;;;;6.05;5.65;;;;;;;16.67;85.61;100169.75;10462271;28;20052;-73
2021/09/12 21:24:54;;;;;;;6.50;6.05;;;;;;;16.90;84.75;100178.19;10461796;28;20053;-74
2021/09/12 21:29:55;;;;;;;5.95;5.55;;;;;;;16.64;85.50;100181.38;10462037;28;20075;-73
2021/09/12 21:34:57;;;;;;;5.82;5.40;;;;;;;16.55;85.90;100180.09;10460530;28;20099;-74
2021/09/12 21:39:59;;;;;;;6.50;6.10;;;;;;;16.39;86.88;100180.09;10460992;28;20056;-73
2021/09/12 21:45:00;;;;;;;6.80;6.30;;;;;;;16.27;88.10;100185.19;10460631;28;20037;-73
2021/09/12 21:50:02;;;;;;;6.45;6.05;;;;;;;16.22;88.38;100185.41;10460213;28;20052;-73
2021/09/12 21:55:04;;;;;;;7.03;6.63;;;;;;;16.11;89.11;100187.75;10460212;28;20059;-72
2021/09/12 22:00:21;;;;;;;6.88;6.18;;;;;;;15.98;89.66;100198.19;10459632;28;20066;-72
2021/09/12 22:05:24;;;;;;;6.43;6.00;;;;;;;15.92;90.25;100201.13;10458637;28;20045;-72
2021/09/12 22:10:26;;;;;;;6.95;6.45;;;;;;;16.01;89.50;100203.28;10459155;28;20053;-73
2021/09/12 22:15:28;;;;;;;7.22;6.65;;;;;;;16.10;88.76;100204.63;10459271;28;20094;-72
2021/09/12 22:20:30;;;;;;;7.90;7.15;;;;;;;16.01;89.18;100205.09;10459275;28;20040;-73
2021/09/12 22:25:33;;;;;;;7.00;6.60;;;;;;;16.00;89.10;100198.94;10459378;28;20045;-73
2021/09/12 22:30:35;;;;;;;7.32;6.75;;;;;;;16.13;88.50;100194.72;10459192;28;20125;-73
2021/09/12 22:35:38;;;;;;;6.30;5.80;;;;;;;15.89;88.97;100193.31;10458166;28;20037;-73
2021/09/12 22:40:40;;;;;;;6.85;6.35;;;;;;;15.75;89.75;100199.31;10458599;28;20376;-73
2021/09/12 22:45:41;;;;;;;6.50;6.07;;;;;;;15.82;89.60;100198.09;10458374;28;20099;-73
2021/09/12 22:50:43;;;;;;;8.13;7.53;;;;;;;16.04;88.81;100200.50;10456558;28;20178;-72
2021/09/12 22:55:44;;;;;;;7.53;6.93;;;;;;;15.82;88.99;100199.88;10458141;28;20457;-73